sensor_id;sensor_type;location;lat;lon;timestamp;P1;durP1;ratioP1;P2;durP2;ratioP2
52940;SDS011;62001;53.366;6.636;2023-08-21T00:02:01;10.27;;;5.63;;
52940;SDS011;62001;53.366;6.636;2023-08-21T00:04:27;10.90;;;5.78;;
52940;SDS011;62001;53.366;6.636;2023-08-21T00:06:54;11.70;;;6.28;;
52940;SDS011;62001;53.366;6.636;2023-08-21T00:09:20;9.32;;;4.80;;
52940;SDS011;62001;53.366;6.636;2023-08-21T00:11:46;8.25;;;4.30;;
52940;SDS011;62001;53.366;6.636;2023-08-21T00:14:12;8.70;;;4.55;;
52940;SDS011;62001;53.366;6.636;2023-08-21T00:16:37;4.15;;;3.20;;
52940;SDS011;62001;53.366;6.636;2023-08-21T00:19:03;6.15;;;3.50;;
52940;SDS011;62001;53.366;6.636;2023-08-21T00:21:29;4.43;;;3.10;;
52940;SDS011;62001;53.366;6.636;2023-08-21T00:23:55;3.42;;;3.10;;
52940;SDS011;62001;53.366;6.636;2023-08-21T00:26:21;3.80;;;3.08;;
52940;SDS011;62001;53.366;6.636;2023-08-21T00:28:47;5.28;;;3.70;;
52940;SDS011;62001;53.366;6.636;2023-08-21T00:31:13;3.88;;;3.08;;
52940;SDS011;62001;53.366;6.636;2023-08-21T00:33:39;3.40;;;2.70;;
52940;SDS011;62001;53.366;6.636;2023-08-21T00:36:05;2.47;;;2.25;;
52940;SDS011;62001;53.366;6.636;2023-08-21T00:38:31;3.70;;;2.05;;
52940;SDS011;62001;53.366;6.636;2023-08-21T00:40:56;3.63;;;1.95;;
52940;SDS011;62001;53.366;6.636;2023-08-21T00:43:22;3.25;;;2.80;;
52940;SDS011;62001;53.366;6.636;2023-08-21T00:45:48;3.13;;;2.70;;
52940;SDS011;62001;53.366;6.636;2023-08-21T00:48:15;3.55;;;3.20;;
52940;SDS011;62001;53.366;6.636;2023-08-21T00:50:42;5.63;;;3.17;;
52940;SDS011;62001;53.366;6.636;2023-08-21T00:53:10;5.00;;;3.33;;
52940;SDS011;62001;53.366;6.636;2023-08-21T00:55:36;7.15;;;3.25;;
52940;SDS011;62001;53.366;6.636;2023-08-21T00:58:03;7.40;;;3.30;;
52940;SDS011;62001;53.366;6.636;2023-08-21T01:00:30;7.50;;;3.45;;
52940;SDS011;62001;53.366;6.636;2023-08-21T01:02:56;5.47;;;3.53;;
52940;SDS011;62001;53.366;6.636;2023-08-21T01:05:22;8.63;;;4.00;;
52940;SDS011;62001;53.366;6.636;2023-08-21T01:07:50;8.13;;;3.78;;
52940;SDS011;62001;53.366;6.636;2023-08-21T01:13:09;5.05;;;2.90;;
52940;SDS011;62001;53.366;6.636;2023-08-21T01:15:41;8.10;;;4.10;;
52940;SDS011;62001;53.366;6.636;2023-08-21T01:18:09;9.48;;;4.55;;
52940;SDS011;62001;53.366;6.636;2023-08-21T01:20:35;7.05;;;4.00;;
52940;SDS011;62001;53.366;6.636;2023-08-21T01:23:03;10.68;;;4.00;;
52940;SDS011;62001;53.366;6.636;2023-08-21T01:25:31;10.13;;;4.78;;
52940;SDS011;62001;53.366;6.636;2023-08-21T01:27:57;9.13;;;4.80;;
52940;SDS011;62001;53.366;6.636;2023-08-21T01:30:23;11.82;;;5.35;;
52940;SDS011;62001;53.366;6.636;2023-08-21T01:35:18;10.73;;;5.70;;
52940;SDS011;62001;53.366;6.636;2023-08-21T01:37:46;12.05;;;6.03;;
52940;SDS011;62001;53.366;6.636;2023-08-21T01:40:14;10.45;;;5.47;;
52940;SDS011;62001;53.366;6.636;2023-08-21T01:42:46;11.52;;;5.93;;
52940;SDS011;62001;53.366;6.636;2023-08-21T01:45:12;9.95;;;5.60;;
52940;SDS011;62001;53.366;6.636;2023-08-21T01:47:38;9.80;;;5.95;;
52940;SDS011;62001;53.366;6.636;2023-08-21T01:50:04;14.27;;;6.78;;
52940;SDS011;62001;53.366;6.636;2023-08-21T01:52:30;15.15;;;7.15;;
52940;SDS011;62001;53.366;6.636;2023-08-21T01:54:56;16.85;;;8.07;;
52940;SDS011;62001;53.366;6.636;2023-08-21T01:57:22;16.15;;;7.88;;
52940;SDS011;62001;53.366;6.636;2023-08-21T01:59:48;15.40;;;8.00;;
52940;SDS011;62001;53.366;6.636;2023-08-21T02:02:14;17.90;;;7.75;;
52940;SDS011;62001;53.366;6.636;2023-08-21T02:04:40;18.38;;;8.27;;
52940;SDS011;62001;53.366;6.636;2023-08-21T02:07:05;13.73;;;7.78;;
52940;SDS011;62001;53.366;6.636;2023-08-21T02:09:32;15.68;;;7.60;;
52940;SDS011;62001;53.366;6.636;2023-08-21T02:11:58;15.07;;;8.18;;
52940;SDS011;62001;53.366;6.636;2023-08-21T02:14:24;15.93;;;7.78;;
52940;SDS011;62001;53.366;6.636;2023-08-21T02:16:50;15.75;;;7.50;;
52940;SDS011;62001;53.366;6.636;2023-08-21T02:19:16;15.02;;;7.57;;
52940;SDS011;62001;53.366;6.636;2023-08-21T02:21:42;13.85;;;7.70;;
52940;SDS011;62001;53.366;6.636;2023-08-21T02:24:08;11.90;;;7.20;;
52940;SDS011;62001;53.366;6.636;2023-08-21T02:26:33;13.25;;;7.65;;
52940;SDS011;62001;53.366;6.636;2023-08-21T02:28:59;8.75;;;6.45;;
52940;SDS011;62001;53.366;6.636;2023-08-21T02:31:25;5.25;;;3.88;;
52940;SDS011;62001;53.366;6.636;2023-08-21T02:33:51;9.68;;;5.78;;
52940;SDS011;62001;53.366;6.636;2023-08-21T02:36:17;10.23;;;6.82;;
52940;SDS011;62001;53.366;6.636;2023-08-21T02:38:45;10.35;;;6.43;;
52940;SDS011;62001;53.366;6.636;2023-08-21T02:41:11;15.25;;;2.92;;
52940;SDS011;62001;53.366;6.636;2023-08-21T02:43:36;5.18;;;2.80;;
52940;SDS011;62001;53.366;6.636;2023-08-21T02:46:02;2.63;;;2.40;;
52940;SDS011;62001;53.366;6.636;2023-08-21T02:48:28;5.45;;;4.00;;
52940;SDS011;62001;53.366;6.636;2023-08-21T02:50:54;6.53;;;4.57;;
52940;SDS011;62001;53.366;6.636;2023-08-21T02:53:20;6.93;;;3.88;;
52940;SDS011;62001;53.366;6.636;2023-08-21T02:55:46;6.07;;;3.83;;
52940;SDS011;62001;53.366;6.636;2023-08-21T02:58:12;6.55;;;3.88;;
52940;SDS011;62001;53.366;6.636;2023-08-21T03:00:38;9.77;;;4.63;;
52940;SDS011;62001;53.366;6.636;2023-08-21T03:03:04;6.47;;;5.30;;
52940;SDS011;62001;53.366;6.636;2023-08-21T03:05:29;7.28;;;3.42;;
52940;SDS011;62001;53.366;6.636;2023-08-21T03:07:55;3.20;;;2.30;;
52940;SDS011;62001;53.366;6.636;2023-08-21T03:10:21;3.47;;;2.42;;
52940;SDS011;62001;53.366;6.636;2023-08-21T03:12:48;3.05;;;2.08;;
52940;SDS011;62001;53.366;6.636;2023-08-21T03:15:14;4.57;;;2.08;;
52940;SDS011;62001;53.366;6.636;2023-08-21T03:17:40;3.45;;;2.13;;
52940;SDS011;62001;53.366;6.636;2023-08-21T03:20:08;4.70;;;2.40;;
52940;SDS011;62001;53.366;6.636;2023-08-21T03:22:34;21.35;;;3.17;;
52940;SDS011;62001;53.366;6.636;2023-08-21T03:25:00;40.65;;;3.92;;
52940;SDS011;62001;53.366;6.636;2023-08-21T03:27:26;103.80;;;5.10;;
52940;SDS011;62001;53.366;6.636;2023-08-21T03:29:52;58.05;;;5.05;;
52940;SDS011;62001;53.366;6.636;2023-08-21T03:32:18;3.90;;;3.60;;
52940;SDS011;62001;53.366;6.636;2023-08-21T03:34:44;39.58;;;4.57;;
52940;SDS011;62001;53.366;6.636;2023-08-21T03:37:10;30.30;;;4.63;;
52940;SDS011;62001;53.366;6.636;2023-08-21T03:39:36;27.80;;;5.57;;
52940;SDS011;62001;53.366;6.636;2023-08-21T03:42:02;22.02;;;5.60;;
52940;SDS011;62001;53.366;6.636;2023-08-21T03:44:28;35.75;;;5.82;;
52940;SDS011;62001;53.366;6.636;2023-08-21T03:46:54;10.82;;;4.40;;
52940;SDS011;62001;53.366;6.636;2023-08-21T03:49:19;13.52;;;5.22;;
52940;SDS011;62001;53.366;6.636;2023-08-21T03:51:45;10.30;;;6.25;;
52940;SDS011;62001;53.366;6.636;2023-08-21T03:54:11;9.68;;;5.82;;
52940;SDS011;62001;53.366;6.636;2023-08-21T03:56:37;12.27;;;5.55;;
52940;SDS011;62001;53.366;6.636;2023-08-21T03:59:03;9.65;;;5.40;;
52940;SDS011;62001;53.366;6.636;2023-08-21T04:01:29;7.28;;;5.88;;
52940;SDS011;62001;53.366;6.636;2023-08-21T04:03:54;7.03;;;5.68;;
52940;SDS011;62001;53.366;6.636;2023-08-21T04:06:20;6.28;;;5.40;;
52940;SDS011;62001;53.366;6.636;2023-08-21T04:08:46;8.48;;;5.80;;
52940;SDS011;62001;53.366;6.636;2023-08-21T04:11:12;10.57;;;6.07;;
52940;SDS011;62001;53.366;6.636;2023-08-21T04:13:38;10.45;;;6.13;;
52940;SDS011;62001;53.366;6.636;2023-08-21T04:16:04;10.13;;;6.43;;
52940;SDS011;62001;53.366;6.636;2023-08-21T04:18:30;13.32;;;6.70;;
52940;SDS011;62001;53.366;6.636;2023-08-21T04:20:55;11.85;;;7.35;;
52940;SDS011;62001;53.366;6.636;2023-08-21T04:23:21;8.70;;;6.70;;
52940;SDS011;62001;53.366;6.636;2023-08-21T04:25:47;11.93;;;7.38;;
52940;SDS011;62001;53.366;6.636;2023-08-21T04:28:13;13.75;;;7.60;;
52940;SDS011;62001;53.366;6.636;2023-08-21T04:30:40;16.20;;;7.40;;
52940;SDS011;62001;53.366;6.636;2023-08-21T04:33:07;14.30;;;7.05;;
52940;SDS011;62001;53.366;6.636;2023-08-21T04:35:39;13.95;;;7.30;;
52940;SDS011;62001;53.366;6.636;2023-08-21T04:38:05;10.07;;;6.88;;
52940;SDS011;62001;53.366;6.636;2023-08-21T04:40:32;13.48;;;6.65;;
52940;SDS011;62001;53.366;6.636;2023-08-21T04:42:58;14.20;;;7.78;;
52940;SDS011;62001;53.366;6.636;2023-08-21T04:45:23;12.60;;;7.70;;
52940;SDS011;62001;53.366;6.636;2023-08-21T04:47:49;10.73;;;6.97;;
52940;SDS011;62001;53.366;6.636;2023-08-21T04:50:15;9.15;;;5.18;;
52940;SDS011;62001;53.366;6.636;2023-08-21T04:52:41;7.63;;;4.70;;
52940;SDS011;62001;53.366;6.636;2023-08-21T04:55:07;5.38;;;3.70;;
52940;SDS011;62001;53.366;6.636;2023-08-21T04:57:33;6.72;;;3.88;;
52940;SDS011;62001;53.366;6.636;2023-08-21T04:59:59;4.82;;;3.17;;
52940;SDS011;62001;53.366;6.636;2023-08-21T05:02:25;4.07;;;3.25;;
52940;SDS011;62001;53.366;6.636;2023-08-21T05:04:50;6.15;;;3.10;;
52940;SDS011;62001;53.366;6.636;2023-08-21T05:07:16;8.48;;;4.10;;
52940;SDS011;62001;53.366;6.636;2023-08-21T05:09:42;8.98;;;5.07;;
52940;SDS011;62001;53.366;6.636;2023-08-21T05:12:08;8.32;;;5.22;;
52940;SDS011;62001;53.366;6.636;2023-08-21T05:14:34;7.70;;;4.53;;
52940;SDS011;62001;53.366;6.636;2023-08-21T05:17:00;8.32;;;5.38;;
52940;SDS011;62001;53.366;6.636;2023-08-21T05:19:26;10.10;;;5.07;;
52940;SDS011;62001;53.366;6.636;2023-08-21T05:21:51;7.30;;;4.80;;
52940;SDS011;62001;53.366;6.636;2023-08-21T05:24:17;5.32;;;3.55;;
52940;SDS011;62001;53.366;6.636;2023-08-21T05:26:43;6.63;;;3.50;;
52940;SDS011;62001;53.366;6.636;2023-08-21T05:29:09;5.68;;;3.10;;
52940;SDS011;62001;53.366;6.636;2023-08-21T05:31:35;4.13;;;3.40;;
52940;SDS011;62001;53.366;6.636;2023-08-21T05:34:01;9.23;;;3.80;;
52940;SDS011;62001;53.366;6.636;2023-08-21T05:36:26;5.90;;;3.38;;
52940;SDS011;62001;53.366;6.636;2023-08-21T05:38:52;6.47;;;3.63;;
52940;SDS011;62001;53.366;6.636;2023-08-21T05:41:18;5.13;;;3.30;;
52940;SDS011;62001;53.366;6.636;2023-08-21T05:43:44;7.75;;;3.17;;
52940;SDS011;62001;53.366;6.636;2023-08-21T05:46:10;6.53;;;3.30;;
52940;SDS011;62001;53.366;6.636;2023-08-21T05:48:36;4.00;;;3.15;;
52940;SDS011;62001;53.366;6.636;2023-08-21T05:51:02;5.72;;;3.05;;
52940;SDS011;62001;53.366;6.636;2023-08-21T05:53:28;3.95;;;2.78;;
52940;SDS011;62001;53.366;6.636;2023-08-21T05:55:54;6.22;;;3.13;;
52940;SDS011;62001;53.366;6.636;2023-08-21T05:58:20;8.18;;;4.20;;
52940;SDS011;62001;53.366;6.636;2023-08-21T06:00:46;8.82;;;4.45;;
52940;SDS011;62001;53.366;6.636;2023-08-21T06:03:12;9.57;;;5.32;;
52940;SDS011;62001;53.366;6.636;2023-08-21T06:05:38;11.82;;;6.50;;
52940;SDS011;62001;53.366;6.636;2023-08-21T06:08:04;14.10;;;7.13;;
52940;SDS011;62001;53.366;6.636;2023-08-21T06:10:33;9.82;;;6.68;;
52940;SDS011;62001;53.366;6.636;2023-08-21T06:12:59;11.15;;;6.95;;
52940;SDS011;62001;53.366;6.636;2023-08-21T06:15:25;14.50;;;6.57;;
52940;SDS011;62001;53.366;6.636;2023-08-21T06:17:51;15.85;;;6.95;;
52940;SDS011;62001;53.366;6.636;2023-08-21T06:20:17;11.82;;;6.20;;
52940;SDS011;62001;53.366;6.636;2023-08-21T06:22:44;12.70;;;6.13;;
52940;SDS011;62001;53.366;6.636;2023-08-21T06:25:10;12.55;;;6.60;;
52940;SDS011;62001;53.366;6.636;2023-08-21T06:27:37;13.63;;;5.45;;
52940;SDS011;62001;53.366;6.636;2023-08-21T06:30:03;11.63;;;5.97;;
52940;SDS011;62001;53.366;6.636;2023-08-21T06:32:29;8.48;;;5.32;;
52940;SDS011;62001;53.366;6.636;2023-08-21T06:34:55;10.90;;;6.00;;
52940;SDS011;62001;53.366;6.636;2023-08-21T06:37:21;10.80;;;5.38;;
52940;SDS011;62001;53.366;6.636;2023-08-21T06:39:47;10.45;;;5.38;;
52940;SDS011;62001;53.366;6.636;2023-08-21T06:42:12;8.38;;;5.07;;
52940;SDS011;62001;53.366;6.636;2023-08-21T06:44:38;10.27;;;5.00;;
52940;SDS011;62001;53.366;6.636;2023-08-21T06:47:05;7.28;;;4.53;;
52940;SDS011;62001;53.366;6.636;2023-08-21T06:49:30;9.02;;;4.60;;
52940;SDS011;62001;53.366;6.636;2023-08-21T06:51:56;9.57;;;4.10;;
52940;SDS011;62001;53.366;6.636;2023-08-21T06:54:23;11.65;;;4.20;;
52940;SDS011;62001;53.366;6.636;2023-08-21T06:56:49;8.27;;;4.13;;
52940;SDS011;62001;53.366;6.636;2023-08-21T06:59:15;10.15;;;4.15;;
52940;SDS011;62001;53.366;6.636;2023-08-21T07:01:41;7.53;;;3.95;;
52940;SDS011;62001;53.366;6.636;2023-08-21T07:04:07;11.88;;;4.28;;
52940;SDS011;62001;53.366;6.636;2023-08-21T07:06:33;8.82;;;4.10;;
52940;SDS011;62001;53.366;6.636;2023-08-21T07:08:58;7.20;;;3.58;;
52940;SDS011;62001;53.366;6.636;2023-08-21T07:11:24;10.52;;;3.60;;
52940;SDS011;62001;53.366;6.636;2023-08-21T07:13:50;8.93;;;3.92;;
52940;SDS011;62001;53.366;6.636;2023-08-21T07:16:16;8.43;;;3.10;;
52940;SDS011;62001;53.366;6.636;2023-08-21T07:18:42;8.30;;;2.80;;
52940;SDS011;62001;53.366;6.636;2023-08-21T07:21:08;7.80;;;3.35;;
52940;SDS011;62001;53.366;6.636;2023-08-21T07:23:34;7.05;;;3.00;;
52940;SDS011;62001;53.366;6.636;2023-08-21T07:26:00;7.03;;;2.67;;
52940;SDS011;62001;53.366;6.636;2023-08-21T07:28:26;6.07;;;2.80;;
52940;SDS011;62001;53.366;6.636;2023-08-21T07:30:55;7.50;;;2.28;;
52940;SDS011;62001;53.366;6.636;2023-08-21T07:33:22;6.35;;;2.40;;
52940;SDS011;62001;53.366;6.636;2023-08-21T07:35:56;7.40;;;2.03;;
52940;SDS011;62001;53.366;6.636;2023-08-21T07:38:29;6.57;;;2.13;;
52940;SDS011;62001;53.366;6.636;2023-08-21T07:41:06;6.18;;;1.80;;
52940;SDS011;62001;53.366;6.636;2023-08-21T07:43:35;3.42;;;1.60;;
52940;SDS011;62001;53.366;6.636;2023-08-21T07:46:02;4.75;;;1.80;;
52940;SDS011;62001;53.366;6.636;2023-08-21T07:48:32;3.85;;;1.67;;
52940;SDS011;62001;53.366;6.636;2023-08-21T07:50:58;6.00;;;1.67;;
52940;SDS011;62001;53.366;6.636;2023-08-21T07:53:25;4.13;;;1.38;;
52940;SDS011;62001;53.366;6.636;2023-08-21T07:55:52;5.38;;;1.30;;
52940;SDS011;62001;53.366;6.636;2023-08-21T07:58:18;6.22;;;1.52;;
52940;SDS011;62001;53.366;6.636;2023-08-21T08:00:44;4.80;;;1.58;;
52940;SDS011;62001;53.366;6.636;2023-08-21T08:03:10;4.47;;;1.60;;
52940;SDS011;62001;53.366;6.636;2023-08-21T08:05:37;4.93;;;1.50;;
52940;SDS011;62001;53.366;6.636;2023-08-21T08:08:03;4.47;;;1.52;;
52940;SDS011;62001;53.366;6.636;2023-08-21T08:10:29;3.42;;;1.50;;
52940;SDS011;62001;53.366;6.636;2023-08-21T08:12:55;5.47;;;1.60;;
52940;SDS011;62001;53.366;6.636;2023-08-21T08:15:22;4.47;;;1.58;;
52940;SDS011;62001;53.366;6.636;2023-08-21T08:17:48;4.60;;;1.50;;
52940;SDS011;62001;53.366;6.636;2023-08-21T08:20:18;4.72;;;2.03;;
52940;SDS011;62001;53.366;6.636;2023-08-21T08:22:44;6.40;;;1.98;;
52940;SDS011;62001;53.366;6.636;2023-08-21T08:25:10;6.47;;;2.00;;
52940;SDS011;62001;53.366;6.636;2023-08-21T08:27:36;3.67;;;1.55;;
52940;SDS011;62001;53.366;6.636;2023-08-21T08:30:03;7.75;;;1.85;;
52940;SDS011;62001;53.366;6.636;2023-08-21T08:32:29;3.85;;;1.60;;
52940;SDS011;62001;53.366;6.636;2023-08-21T08:34:55;5.18;;;1.60;;
52940;SDS011;62001;53.366;6.636;2023-08-21T08:37:21;6.10;;;1.75;;
52940;SDS011;62001;53.366;6.636;2023-08-21T08:39:47;4.97;;;1.83;;
52940;SDS011;62001;53.366;6.636;2023-08-21T08:42:13;4.57;;;1.52;;
52940;SDS011;62001;53.366;6.636;2023-08-21T08:44:41;4.13;;;1.65;;
52940;SDS011;62001;53.366;6.636;2023-08-21T08:47:08;5.85;;;1.60;;
52940;SDS011;62001;53.366;6.636;2023-08-21T08:49:35;5.25;;;1.50;;
52940;SDS011;62001;53.366;6.636;2023-08-21T08:52:02;4.90;;;1.42;;
52940;SDS011;62001;53.366;6.636;2023-08-21T08:54:28;4.38;;;1.58;;
52940;SDS011;62001;53.366;6.636;2023-08-21T08:56:55;5.90;;;1.77;;
52940;SDS011;62001;53.366;6.636;2023-08-21T08:59:22;5.22;;;1.38;;
52940;SDS011;62001;53.366;6.636;2023-08-21T09:01:48;5.30;;;1.80;;
52940;SDS011;62001;53.366;6.636;2023-08-21T09:04:14;5.20;;;1.55;;
52940;SDS011;62001;53.366;6.636;2023-08-21T09:06:40;3.92;;;1.40;;
52940;SDS011;62001;53.366;6.636;2023-08-21T09:09:07;5.00;;;1.23;;
52940;SDS011;62001;53.366;6.636;2023-08-21T09:11:33;5.40;;;1.63;;
52940;SDS011;62001;53.366;6.636;2023-08-21T09:13:59;4.15;;;1.48;;
52940;SDS011;62001;53.366;6.636;2023-08-21T09:16:25;7.18;;;1.73;;
52940;SDS011;62001;53.366;6.636;2023-08-21T09:18:53;4.97;;;1.52;;
52940;SDS011;62001;53.366;6.636;2023-08-21T09:21:23;3.67;;;1.40;;
52940;SDS011;62001;53.366;6.636;2023-08-21T09:23:51;5.57;;;1.52;;
52940;SDS011;62001;53.366;6.636;2023-08-21T09:26:30;4.45;;;1.30;;
52940;SDS011;62001;53.366;6.636;2023-08-21T09:29:01;6.53;;;1.40;;
52940;SDS011;62001;53.366;6.636;2023-08-21T09:31:32;8.85;;;3.17;;
52940;SDS011;62001;53.366;6.636;2023-08-21T09:33:59;4.40;;;1.65;;
52940;SDS011;62001;53.366;6.636;2023-08-21T09:36:28;12.68;;;4.85;;
52940;SDS011;62001;53.366;6.636;2023-08-21T09:38:54;6.80;;;2.00;;
52940;SDS011;62001;53.366;6.636;2023-08-21T09:41:20;7.15;;;1.50;;
52940;SDS011;62001;53.366;6.636;2023-08-21T09:43:47;5.22;;;1.65;;
52940;SDS011;62001;53.366;6.636;2023-08-21T09:46:25;4.50;;;1.45;;
52940;SDS011;62001;53.366;6.636;2023-08-21T09:48:53;4.63;;;1.70;;
52940;SDS011;62001;53.366;6.636;2023-08-21T09:51:20;5.85;;;2.70;;
52940;SDS011;62001;53.366;6.636;2023-08-21T09:53:49;12.05;;;6.13;;
52940;SDS011;62001;53.366;6.636;2023-08-21T09:56:16;7.30;;;2.70;;
52940;SDS011;62001;53.366;6.636;2023-08-21T09:58:48;4.10;;;1.30;;
52940;SDS011;62001;53.366;6.636;2023-08-21T10:01:16;4.70;;;1.58;;
52940;SDS011;62001;53.366;6.636;2023-08-21T10:03:45;4.53;;;1.50;;
52940;SDS011;62001;53.366;6.636;2023-08-21T10:06:14;4.07;;;1.42;;
52940;SDS011;62001;53.366;6.636;2023-08-21T10:08:46;4.63;;;1.40;;
52940;SDS011;62001;53.366;6.636;2023-08-21T10:11:16;2.85;;;1.20;;
52940;SDS011;62001;53.366;6.636;2023-08-21T10:13:44;4.05;;;1.52;;
52940;SDS011;62001;53.366;6.636;2023-08-21T10:16:10;7.60;;;1.85;;
52940;SDS011;62001;53.366;6.636;2023-08-21T10:18:37;5.45;;;1.60;;
52940;SDS011;62001;53.366;6.636;2023-08-21T10:21:13;7.43;;;1.55;;
52940;SDS011;62001;53.366;6.636;2023-08-21T10:23:47;4.15;;;1.40;;
52940;SDS011;62001;53.366;6.636;2023-08-21T10:26:14;2.63;;;1.33;;
52940;SDS011;62001;53.366;6.636;2023-08-21T10:29:01;4.40;;;1.60;;
52940;SDS011;62001;53.366;6.636;2023-08-21T10:34:02;4.80;;;1.42;;
52940;SDS011;62001;53.366;6.636;2023-08-21T10:39:13;4.35;;;1.23;;
52940;SDS011;62001;53.366;6.636;2023-08-21T10:44:49;4.07;;;1.60;;
52940;SDS011;62001;53.366;6.636;2023-08-21T10:47:21;4.43;;;1.60;;
52940;SDS011;62001;53.366;6.636;2023-08-21T10:49:54;4.40;;;1.50;;
52940;SDS011;62001;53.366;6.636;2023-08-21T10:52:33;6.00;;;1.30;;
52940;SDS011;62001;53.366;6.636;2023-08-21T10:55:07;5.00;;;1.60;;
52940;SDS011;62001;53.366;6.636;2023-08-21T10:57:35;3.55;;;1.55;;
52940;SDS011;62001;53.366;6.636;2023-08-21T11:00:02;3.78;;;1.20;;
52940;SDS011;62001;53.366;6.636;2023-08-21T11:02:29;7.00;;;1.90;;
52940;SDS011;62001;53.366;6.636;2023-08-21T11:04:57;4.75;;;1.20;;
52940;SDS011;62001;53.366;6.636;2023-08-21T11:07:24;7.60;;;1.63;;
52940;SDS011;62001;53.366;6.636;2023-08-21T11:09:51;6.20;;;1.67;;
52940;SDS011;62001;53.366;6.636;2023-08-21T11:12:18;6.63;;;1.65;;
52940;SDS011;62001;53.366;6.636;2023-08-21T11:14:45;3.43;;;1.40;;
52940;SDS011;62001;53.366;6.636;2023-08-21T11:17:11;4.78;;;1.50;;
52940;SDS011;62001;53.366;6.636;2023-08-21T11:19:38;5.35;;;1.60;;
52940;SDS011;62001;53.366;6.636;2023-08-21T11:22:05;6.88;;;1.85;;
52940;SDS011;62001;53.366;6.636;2023-08-21T11:27:12;5.18;;;1.35;;
52940;SDS011;62001;53.366;6.636;2023-08-21T11:29:41;6.30;;;1.40;;
52940;SDS011;62001;53.366;6.636;2023-08-21T11:32:09;4.20;;;1.67;;
52940;SDS011;62001;53.366;6.636;2023-08-21T11:34:37;4.80;;;1.60;;
52940;SDS011;62001;53.366;6.636;2023-08-21T11:37:04;4.68;;;1.60;;
52940;SDS011;62001;53.366;6.636;2023-08-21T11:39:44;4.30;;;1.58;;
52940;SDS011;62001;53.366;6.636;2023-08-21T11:42:14;5.47;;;1.50;;
52940;SDS011;62001;53.366;6.636;2023-08-21T11:44:41;4.80;;;1.70;;
52940;SDS011;62001;53.366;6.636;2023-08-21T11:47:17;4.53;;;1.40;;
52940;SDS011;62001;53.366;6.636;2023-08-21T11:49:45;7.28;;;1.73;;
52940;SDS011;62001;53.366;6.636;2023-08-21T11:52:22;5.18;;;1.67;;
52940;SDS011;62001;53.366;6.636;2023-08-21T11:54:51;5.43;;;1.67;;
52940;SDS011;62001;53.366;6.636;2023-08-21T11:57:18;4.45;;;1.55;;
52940;SDS011;62001;53.366;6.636;2023-08-21T11:59:53;6.47;;;1.73;;
52940;SDS011;62001;53.366;6.636;2023-08-21T12:02:23;4.43;;;1.70;;
52940;SDS011;62001;53.366;6.636;2023-08-21T12:04:52;3.47;;;1.65;;
52940;SDS011;62001;53.366;6.636;2023-08-21T12:07:25;7.95;;;1.60;;
52940;SDS011;62001;53.366;6.636;2023-08-21T12:09:51;3.92;;;1.58;;
52940;SDS011;62001;53.366;6.636;2023-08-21T12:12:17;5.40;;;1.63;;
52940;SDS011;62001;53.366;6.636;2023-08-21T12:14:43;5.40;;;1.70;;
52940;SDS011;62001;53.366;6.636;2023-08-21T12:17:09;4.80;;;1.70;;
52940;SDS011;62001;53.366;6.636;2023-08-21T12:19:35;4.65;;;1.63;;
52940;SDS011;62001;53.366;6.636;2023-08-21T12:22:01;6.93;;;1.92;;
52940;SDS011;62001;53.366;6.636;2023-08-21T12:24:28;4.45;;;1.80;;
52940;SDS011;62001;53.366;6.636;2023-08-21T12:26:53;6.65;;;1.67;;
52940;SDS011;62001;53.366;6.636;2023-08-21T12:29:20;4.47;;;1.60;;
52940;SDS011;62001;53.366;6.636;2023-08-21T12:31:46;4.60;;;1.60;;
52940;SDS011;62001;53.366;6.636;2023-08-21T12:34:12;8.68;;;1.60;;
52940;SDS011;62001;53.366;6.636;2023-08-21T12:36:38;6.28;;;1.80;;
52940;SDS011;62001;53.366;6.636;2023-08-21T12:39:05;8.15;;;1.90;;
52940;SDS011;62001;53.366;6.636;2023-08-21T12:41:31;4.50;;;1.55;;
52940;SDS011;62001;53.366;6.636;2023-08-21T12:44:00;9.52;;;1.67;;
52940;SDS011;62001;53.366;6.636;2023-08-21T12:46:28;4.95;;;1.65;;
52940;SDS011;62001;53.366;6.636;2023-08-21T12:48:55;4.63;;;1.65;;
52940;SDS011;62001;53.366;6.636;2023-08-21T12:51:22;4.93;;;1.83;;
52940;SDS011;62001;53.366;6.636;2023-08-21T12:53:48;4.63;;;1.60;;
52940;SDS011;62001;53.366;6.636;2023-08-21T12:56:14;6.43;;;2.28;;
52940;SDS011;62001;53.366;6.636;2023-08-21T12:58:40;8.60;;;1.85;;
52940;SDS011;62001;53.366;6.636;2023-08-21T13:01:05;4.90;;;1.30;;
52940;SDS011;62001;53.366;6.636;2023-08-21T13:03:33;8.00;;;2.13;;
52940;SDS011;62001;53.366;6.636;2023-08-21T13:05:59;11.55;;;7.63;;
52940;SDS011;62001;53.366;6.636;2023-08-21T13:08:24;10.18;;;4.72;;
52940;SDS011;62001;53.366;6.636;2023-08-21T13:10:52;6.53;;;2.53;;
52940;SDS011;62001;53.366;6.636;2023-08-21T13:13:18;9.30;;;3.92;;
52940;SDS011;62001;53.366;6.636;2023-08-21T13:15:43;9.07;;;2.13;;
52940;SDS011;62001;53.366;6.636;2023-08-21T13:18:10;6.75;;;1.83;;
52940;SDS011;62001;53.366;6.636;2023-08-21T13:20:36;10.38;;;2.22;;
52940;SDS011;62001;53.366;6.636;2023-08-21T13:23:02;8.85;;;3.20;;
52940;SDS011;62001;53.366;6.636;2023-08-21T13:25:28;13.77;;;4.30;;
52940;SDS011;62001;53.366;6.636;2023-08-21T13:27:55;12.55;;;4.57;;
52940;SDS011;62001;53.366;6.636;2023-08-21T13:30:21;14.00;;;4.93;;
52940;SDS011;62001;53.366;6.636;2023-08-21T13:32:47;14.82;;;4.95;;
52940;SDS011;62001;53.366;6.636;2023-08-21T13:35:13;15.35;;;5.22;;
52940;SDS011;62001;53.366;6.636;2023-08-21T13:37:39;15.00;;;5.13;;
52940;SDS011;62001;53.366;6.636;2023-08-21T13:40:06;14.15;;;5.05;;
52940;SDS011;62001;53.366;6.636;2023-08-21T13:42:38;20.10;;;5.60;;
52940;SDS011;62001;53.366;6.636;2023-08-21T13:45:11;15.32;;;6.28;;
52940;SDS011;62001;53.366;6.636;2023-08-21T13:47:39;18.95;;;7.30;;
52940;SDS011;62001;53.366;6.636;2023-08-21T13:50:06;14.40;;;7.10;;
52940;SDS011;62001;53.366;6.636;2023-08-21T13:52:33;15.80;;;7.18;;
52940;SDS011;62001;53.366;6.636;2023-08-21T13:54:59;18.77;;;7.45;;
52940;SDS011;62001;53.366;6.636;2023-08-21T13:57:26;19.83;;;7.70;;
52940;SDS011;62001;53.366;6.636;2023-08-21T13:59:52;15.80;;;6.10;;
52940;SDS011;62001;53.366;6.636;2023-08-21T14:02:18;15.77;;;5.95;;
52940;SDS011;62001;53.366;6.636;2023-08-21T14:04:44;15.73;;;5.53;;
52940;SDS011;62001;53.366;6.636;2023-08-21T14:07:11;10.93;;;5.32;;
52940;SDS011;62001;53.366;6.636;2023-08-21T14:09:38;13.45;;;5.07;;
52940;SDS011;62001;53.366;6.636;2023-08-21T14:12:04;14.38;;;5.10;;
52940;SDS011;62001;53.366;6.636;2023-08-21T14:14:32;12.98;;;4.72;;
52940;SDS011;62001;53.366;6.636;2023-08-21T14:16:58;13.15;;;3.90;;
52940;SDS011;62001;53.366;6.636;2023-08-21T14:19:24;13.68;;;3.72;;
52940;SDS011;62001;53.366;6.636;2023-08-21T14:21:50;11.10;;;3.30;;
52940;SDS011;62001;53.366;6.636;2023-08-21T14:24:16;13.50;;;3.17;;
52940;SDS011;62001;53.366;6.636;2023-08-21T14:26:42;7.95;;;2.40;;
52940;SDS011;62001;53.366;6.636;2023-08-21T14:29:08;10.25;;;2.92;;
52940;SDS011;62001;53.366;6.636;2023-08-21T14:31:34;9.77;;;2.85;;
52940;SDS011;62001;53.366;6.636;2023-08-21T14:33:59;10.75;;;3.47;;
52940;SDS011;62001;53.366;6.636;2023-08-21T14:36:26;12.38;;;3.55;;
52940;SDS011;62001;53.366;6.636;2023-08-21T14:38:52;11.52;;;3.78;;
52940;SDS011;62001;53.366;6.636;2023-08-21T14:41:17;15.05;;;5.55;;
52940;SDS011;62001;53.366;6.636;2023-08-21T14:43:43;14.75;;;4.00;;
52940;SDS011;62001;53.366;6.636;2023-08-21T14:46:09;14.20;;;4.72;;
52940;SDS011;62001;53.366;6.636;2023-08-21T14:48:35;15.55;;;5.53;;
52940;SDS011;62001;53.366;6.636;2023-08-21T14:51:02;15.43;;;5.85;;
52940;SDS011;62001;53.366;6.636;2023-08-21T14:55:57;11.82;;;4.40;;
52940;SDS011;62001;53.366;6.636;2023-08-21T14:58:23;10.32;;;3.95;;
52940;SDS011;62001;53.366;6.636;2023-08-21T15:00:49;13.85;;;3.83;;